Lincolnville, ME (04849)

8:05 PM EDT on August 03, 2015 (GMT -0400)
Levenseller Mountain | | Change Station
CLOSE
Current Station
Personal Weather Station
Location: Lincolnville, ME
Elevation: 486 ft
Nearby Weather Stations

Elev 486 ft 44.33 °N, 69.10 °W | Updated 13 minutes ago

Clear
Clear
70.9 °F
Feels Like 70.9 °F
N
1.1
Wind Variable Wind from South

Today
High -- | Low -- °F
--% Chance of Precip.
Yesterday
High -- | Low -- °F
Precip. -- in
5:25 AM 7:58 PM
Waning Gibbous, 83% visible
Pressure 29.77 in
Visibility 8.0 miles
Clouds Scattered Clouds 600 ft
Dew Point 67 °F
Humidity 88%
Rainfall 0.00 in
Snow Depth Not available.
UV 0 out of 12
Pollen 5.80 out of 12
Air Quality Not available.
Flu Activity Not available.
METAR KRKD 032355Z AUTO 21004KT 8SM SCT006 19/17 A2977 RMK AO1 10220 20190 52003

More Conditions Fewer Conditions

Pressure 29.77 in
Visibility 8.0 miles
Clouds Scattered Clouds 600 ft
Dew Point 67 °F
Humidity 88%
Rainfall 0.00 in
Snow Depth Not available.
UV 0 out of 12
Pollen 5.80 out of 12
Air Quality Not available.
Flu Activity Not available.
METAR KRKD 032355Z AUTO 21004KT 8SM SCT006 19/17 A2977 RMK AO1 10220 20190 52003

More Conditions Fewer Conditions

10-Day Weather Forecast

×

Almanac

Astronomy

Aug. 03, 2015 Rise Set
Actual Time
Civil Twilight
Nautical Twilight
Astronomical Twilight
Moon
Length of Visible Light
Length of Day
Tomorrow will be .
, % of the Moon is Illuminated

Today's Extremes

State Highs State Lows

Community

WunderPhotos

Upload Photos

1,843,788 photos uploaded!

WunderBlogs® & News

Nearby

Air Quality

  Air Quality AQ Index Pollutant
Not available.

Snow Depth

Station Depth Elevation

Earthquake Activity

City Distance Mag. Time & Date
Minimum magnitude displayed is 2.5.

Coastal Water Temperatures

Place Temperature

Stations

Nearby Weather Stations

Station Location Temp. Windchill Dew Point Humidity Wind Precip. Elev Updated Type